Main page
METAR-TAF:

METAR-TAF

Airports :

Deauville – Normandie Airport

Deauville, France

latitude: 49-21-55N, longitude: 000-09-16E, elevation: 146 m

Current weather observation

The report was made 37 minutes ago, at 22:00 UTC
Wind 12 kt from the West/Southwest
Temperature 13°C
Humidity 94%
Pressure 1022 hPa
Visibility 10 km or more
Overcast at a height of 800 ft

METAR: LFRG 252200Z AUTO 25012KT 9999 OVC008 13/12 Q1022

Time: 00:37 (22:37 UTC)

Forecast

The report was made 8 hours and 37 minutes ago, at 14:00 UTC
Forecast valid from 25 at 15 UTC to 25 at 24 UTC
Wind 10 kt from the West/Southwest
Visibility 10 km or more
Broken clouds at a height of 3000 ft
Temporary
from 25 at 15 UTC to 25 at 24 UTC
Wind 15 kt from the West/Southwest with gusts up to 25 kt
Probability 40% :
Temporary
from 25 at 16 UTC to 25 at 24 UTC
Visibility: 5000 m
Broken clouds at a height of 1200 ft
rain

TAF: LFRG 251400Z 2515/2524 25010KT 9999 BKN030 TEMPO 2515/2524 25015G25KT PROB40 TEMPO 2516/2524 5000 RA BKN012

Weather observations and forecasts of more than 4000 airports (METAR and TAF reports).

The available stations are represented by yellow and red dots on the map.

Hover mouse over dot to see the name of the station.

Then click to see weather observations and forecasts.

To change the map : click on the green buttons with a black cross to zoom in, on the green button with a dash to zoom out, or on the green arrows for adjacent maps.


METAR-TAF: